sensor_id;sensor_type;location;lat;lon;timestamp;P1;durP1;ratioP1;P2;durP2;ratioP2
60847;SDS011;46681;47.696;9.140;2024-03-02T00:01:07;3.83;;;3.53;;
60847;SDS011;46681;47.696;9.140;2024-03-02T00:03:34;5.03;;;3.93;;
60847;SDS011;46681;47.696;9.140;2024-03-02T00:06:02;4.30;;;3.97;;
60847;SDS011;46681;47.696;9.140;2024-03-02T00:08:31;5.10;;;3.90;;
60847;SDS011;46681;47.696;9.140;2024-03-02T00:10:57;4.27;;;3.87;;
60847;SDS011;46681;47.696;9.140;2024-03-02T00:13:23;4.20;;;3.80;;
60847;SDS011;46681;47.696;9.140;2024-03-02T00:15:55;4.20;;;3.80;;
60847;SDS011;46681;47.696;9.140;2024-03-02T00:18:31;3.70;;;3.40;;
60847;SDS011;46681;47.696;9.140;2024-03-02T00:21:00;3.80;;;3.50;;
60847;SDS011;46681;47.696;9.140;2024-03-02T00:23:31;4.20;;;3.90;;
60847;SDS011;46681;47.696;9.140;2024-03-02T00:25:57;4.57;;;3.97;;
60847;SDS011;46681;47.696;9.140;2024-03-02T00:28:36;3.90;;;3.30;;
60847;SDS011;46681;47.696;9.140;2024-03-02T00:31:08;3.97;;;3.67;;
60847;SDS011;46681;47.696;9.140;2024-03-02T00:33:37;3.80;;;3.50;;
60847;SDS011;46681;47.696;9.140;2024-03-02T00:36:07;4.70;;;4.30;;
60847;SDS011;46681;47.696;9.140;2024-03-02T00:38:33;4.00;;;3.70;;
60847;SDS011;46681;47.696;9.140;2024-03-02T00:41:06;4.17;;;3.77;;
60847;SDS011;46681;47.696;9.140;2024-03-02T00:46:09;4.20;;;3.90;;
60847;SDS011;46681;47.696;9.140;2024-03-02T00:48:47;3.93;;;3.63;;
60847;SDS011;46681;47.696;9.140;2024-03-02T00:51:17;4.50;;;4.10;;
60847;SDS011;46681;47.696;9.140;2024-03-02T00:53:42;4.20;;;3.90;;
60847;SDS011;46681;47.696;9.140;2024-03-02T00:56:09;4.50;;;4.10;;
60847;SDS011;46681;47.696;9.140;2024-03-02T00:58:36;5.37;;;4.90;;
60847;SDS011;46681;47.696;9.140;2024-03-02T01:01:01;4.80;;;4.23;;
60847;SDS011;46681;47.696;9.140;2024-03-02T01:03:27;4.47;;;4.17;;
60847;SDS011;46681;47.696;9.140;2024-03-02T01:05:52;5.53;;;5.03;;
60847;SDS011;46681;47.696;9.140;2024-03-02T01:08:18;5.03;;;4.53;;
60847;SDS011;46681;47.696;9.140;2024-03-02T01:10:43;5.90;;;5.37;;
60847;SDS011;46681;47.696;9.140;2024-03-02T01:13:09;5.10;;;4.70;;
60847;SDS011;46681;47.696;9.140;2024-03-02T01:15:34;5.10;;;4.70;;
60847;SDS011;46681;47.696;9.140;2024-03-02T01:18:00;5.50;;;5.00;;
60847;SDS011;46681;47.696;9.140;2024-03-02T01:20:25;5.20;;;4.80;;
60847;SDS011;46681;47.696;9.140;2024-03-02T01:22:51;6.00;;;5.50;;
60847;SDS011;46681;47.696;9.140;2024-03-02T01:25:16;5.47;;;4.97;;
60847;SDS011;46681;47.696;9.140;2024-03-02T01:27:42;5.70;;;5.20;;
60847;SDS011;46681;47.696;9.140;2024-03-02T01:30:10;6.10;;;5.50;;
60847;SDS011;46681;47.696;9.140;2024-03-02T01:32:37;6.40;;;5.80;;
60847;SDS011;46681;47.696;9.140;2024-03-02T01:35:06;6.77;;;5.63;;
60847;SDS011;46681;47.696;9.140;2024-03-02T01:37:32;6.20;;;5.63;;
60847;SDS011;46681;47.696;9.140;2024-03-02T01:39:57;6.50;;;5.90;;
60847;SDS011;46681;47.696;9.140;2024-03-02T01:42:23;5.53;;;5.00;;
60847;SDS011;46681;47.696;9.140;2024-03-02T01:44:49;6.30;;;5.70;;
60847;SDS011;46681;47.696;9.140;2024-03-02T01:47:14;6.60;;;5.97;;
60847;SDS011;46681;47.696;9.140;2024-03-02T01:49:40;6.50;;;5.90;;
60847;SDS011;46681;47.696;9.140;2024-03-02T01:52:06;7.03;;;6.43;;
60847;SDS011;46681;47.696;9.140;2024-03-02T01:54:31;7.43;;;6.20;;
60847;SDS011;46681;47.696;9.140;2024-03-02T01:56:57;6.67;;;6.07;;
60847;SDS011;46681;47.696;9.140;2024-03-02T01:59:23;7.53;;;6.83;;
60847;SDS011;46681;47.696;9.140;2024-03-02T02:01:48;7.23;;;6.53;;
60847;SDS011;46681;47.696;9.140;2024-03-02T02:04:16;7.90;;;6.70;;
60847;SDS011;46681;47.696;9.140;2024-03-02T02:06:43;7.30;;;6.60;;
60847;SDS011;46681;47.696;9.140;2024-03-02T02:09:11;7.47;;;6.77;;
60847;SDS011;46681;47.696;9.140;2024-03-02T02:11:37;8.30;;;7.50;;
60847;SDS011;46681;47.696;9.140;2024-03-02T02:14:02;7.37;;;6.67;;
60847;SDS011;46681;47.696;9.140;2024-03-02T02:16:28;7.63;;;6.93;;
60847;SDS011;46681;47.696;9.140;2024-03-02T02:18:53;7.87;;;7.13;;
60847;SDS011;46681;47.696;9.140;2024-03-02T02:21:22;7.90;;;7.10;;
60847;SDS011;46681;47.696;9.140;2024-03-02T02:23:48;7.50;;;6.90;;
60847;SDS011;46681;47.696;9.140;2024-03-02T02:26:13;8.33;;;7.57;;
60847;SDS011;46681;47.696;9.140;2024-03-02T02:28:39;8.37;;;7.57;;
60847;SDS011;46681;47.696;9.140;2024-03-02T02:31:04;8.47;;;7.70;;
60847;SDS011;46681;47.696;9.140;2024-03-02T02:33:30;8.80;;;7.90;;
60847;SDS011;46681;47.696;9.140;2024-03-02T02:35:55;7.33;;;6.63;;
60847;SDS011;46681;47.696;9.140;2024-03-02T02:38:20;8.93;;;8.13;;
60847;SDS011;46681;47.696;9.140;2024-03-02T02:40:46;8.40;;;7.60;;
60847;SDS011;46681;47.696;9.140;2024-03-02T02:43:11;8.37;;;7.57;;
60847;SDS011;46681;47.696;9.140;2024-03-02T02:45:37;7.70;;;7.00;;
60847;SDS011;46681;47.696;9.140;2024-03-02T02:48:03;8.73;;;7.93;;
60847;SDS011;46681;47.696;9.140;2024-03-02T02:50:29;8.80;;;7.90;;
60847;SDS011;46681;47.696;9.140;2024-03-02T02:52:55;7.63;;;6.93;;
60847;SDS011;46681;47.696;9.140;2024-03-02T02:55:20;8.10;;;7.37;;
60847;SDS011;46681;47.696;9.140;2024-03-02T02:57:46;7.80;;;7.10;;
60847;SDS011;46681;47.696;9.140;2024-03-02T03:00:13;8.00;;;7.30;;
60847;SDS011;46681;47.696;9.140;2024-03-02T03:02:41;7.87;;;7.13;;
60847;SDS011;46681;47.696;9.140;2024-03-02T03:05:08;8.13;;;7.33;;
60847;SDS011;46681;47.696;9.140;2024-03-02T03:07:35;8.60;;;7.70;;
60847;SDS011;46681;47.696;9.140;2024-03-02T03:10:01;8.57;;;7.77;;
60847;SDS011;46681;47.696;9.140;2024-03-02T03:12:27;7.30;;;6.70;;
60847;SDS011;46681;47.696;9.140;2024-03-02T03:14:55;8.30;;;7.47;;
60847;SDS011;46681;47.696;9.140;2024-03-02T03:17:21;9.20;;;8.30;;
60847;SDS011;46681;47.696;9.140;2024-03-02T03:19:49;8.73;;;7.93;;
60847;SDS011;46681;47.696;9.140;2024-03-02T03:22:15;8.67;;;7.87;;
60847;SDS011;46681;47.696;9.140;2024-03-02T03:24:41;8.43;;;7.70;;
60847;SDS011;46681;47.696;9.140;2024-03-02T03:27:06;8.60;;;7.80;;
60847;SDS011;46681;47.696;9.140;2024-03-02T03:29:32;8.60;;;7.47;;
60847;SDS011;46681;47.696;9.140;2024-03-02T03:32:01;9.37;;;8.30;;
60847;SDS011;46681;47.696;9.140;2024-03-02T03:34:26;8.70;;;7.90;;
60847;SDS011;46681;47.696;9.140;2024-03-02T03:36:52;8.57;;;7.73;;
60847;SDS011;46681;47.696;9.140;2024-03-02T03:39:17;8.13;;;7.33;;
60847;SDS011;46681;47.696;9.140;2024-03-02T03:41:43;8.50;;;7.70;;
60847;SDS011;46681;47.696;9.140;2024-03-02T03:44:08;8.83;;;8.03;;
60847;SDS011;46681;47.696;9.140;2024-03-02T03:46:34;9.27;;;8.20;;
60847;SDS011;46681;47.696;9.140;2024-03-02T03:48:59;8.53;;;7.73;;
60847;SDS011;46681;47.696;9.140;2024-03-02T03:51:26;8.70;;;7.90;;
60847;SDS011;46681;47.696;9.140;2024-03-02T03:53:53;8.20;;;7.50;;
60847;SDS011;46681;47.696;9.140;2024-03-02T03:56:20;9.17;;;8.27;;
60847;SDS011;46681;47.696;9.140;2024-03-02T03:58:46;7.93;;;7.23;;
60847;SDS011;46681;47.696;9.140;2024-03-02T04:01:14;7.47;;;6.87;;
60847;SDS011;46681;47.696;9.140;2024-03-02T04:03:39;7.97;;;7.27;;
60847;SDS011;46681;47.696;9.140;2024-03-02T04:06:07;7.30;;;6.70;;
60847;SDS011;46681;47.696;9.140;2024-03-02T04:08:33;8.10;;;7.03;;
60847;SDS011;46681;47.696;9.140;2024-03-02T04:10:58;7.70;;;7.00;;
60847;SDS011;46681;47.696;9.140;2024-03-02T04:13:24;7.27;;;6.70;;
60847;SDS011;46681;47.696;9.140;2024-03-02T04:15:49;6.87;;;6.33;;
60847;SDS011;46681;47.696;9.140;2024-03-02T04:18:15;7.17;;;6.47;;
60847;SDS011;46681;47.696;9.140;2024-03-02T04:20:42;6.43;;;5.93;;
60847;SDS011;46681;47.696;9.140;2024-03-02T04:23:08;6.40;;;5.80;;
60847;SDS011;46681;47.696;9.140;2024-03-02T04:25:33;6.93;;;6.33;;
60847;SDS011;46681;47.696;9.140;2024-03-02T04:27:59;6.70;;;6.10;;
60847;SDS011;46681;47.696;9.140;2024-03-02T04:30:24;6.33;;;5.73;;
60847;SDS011;46681;47.696;9.140;2024-03-02T04:32:50;6.77;;;6.27;;
60847;SDS011;46681;47.696;9.140;2024-03-02T04:35:15;6.50;;;6.00;;
60847;SDS011;46681;47.696;9.140;2024-03-02T04:37:41;7.00;;;6.40;;
60847;SDS011;46681;47.696;9.140;2024-03-02T04:40:07;6.50;;;6.00;;
60847;SDS011;46681;47.696;9.140;2024-03-02T04:42:33;5.90;;;5.50;;
60847;SDS011;46681;47.696;9.140;2024-03-02T04:44:58;6.10;;;5.60;;
60847;SDS011;46681;47.696;9.140;2024-03-02T04:47:24;6.70;;;6.10;;
60847;SDS011;46681;47.696;9.140;2024-03-02T04:49:49;5.60;;;5.20;;
60847;SDS011;46681;47.696;9.140;2024-03-02T04:52:15;6.33;;;5.83;;
60847;SDS011;46681;47.696;9.140;2024-03-02T04:54:43;6.33;;;5.83;;
60847;SDS011;46681;47.696;9.140;2024-03-02T04:57:09;6.20;;;5.70;;
60847;SDS011;46681;47.696;9.140;2024-03-02T04:59:34;5.80;;;5.30;;
60847;SDS011;46681;47.696;9.140;2024-03-02T05:02:00;6.43;;;5.93;;
60847;SDS011;46681;47.696;9.140;2024-03-02T05:04:25;5.83;;;5.33;;
60847;SDS011;46681;47.696;9.140;2024-03-02T05:06:51;6.27;;;5.80;;
60847;SDS011;46681;47.696;9.140;2024-03-02T05:09:19;6.20;;;5.70;;
60847;SDS011;46681;47.696;9.140;2024-03-02T05:11:44;5.63;;;5.23;;
60847;SDS011;46681;47.696;9.140;2024-03-02T05:14:12;6.37;;;5.87;;
60847;SDS011;46681;47.696;9.140;2024-03-02T05:16:38;5.70;;;5.20;;
60847;SDS011;46681;47.696;9.140;2024-03-02T05:19:04;6.03;;;5.53;;
60847;SDS011;46681;47.696;9.140;2024-03-02T05:21:31;5.57;;;5.17;;
60847;SDS011;46681;47.696;9.140;2024-03-02T05:23:57;5.80;;;5.30;;
60847;SDS011;46681;47.696;9.140;2024-03-02T05:26:22;6.17;;;5.67;;
60847;SDS011;46681;47.696;9.140;2024-03-02T05:28:50;6.43;;;5.93;;
60847;SDS011;46681;47.696;9.140;2024-03-02T05:31:19;5.17;;;4.77;;
60847;SDS011;46681;47.696;9.140;2024-03-02T05:33:44;5.40;;;5.00;;
60847;SDS011;46681;47.696;9.140;2024-03-02T05:36:10;5.57;;;5.17;;
60847;SDS011;46681;47.696;9.140;2024-03-02T05:38:35;6.10;;;5.60;;
60847;SDS011;46681;47.696;9.140;2024-03-02T05:41:01;5.57;;;5.17;;
60847;SDS011;46681;47.696;9.140;2024-03-02T05:43:27;6.03;;;5.53;;
60847;SDS011;46681;47.696;9.140;2024-03-02T05:45:53;6.10;;;5.60;;
60847;SDS011;46681;47.696;9.140;2024-03-02T05:48:18;6.00;;;5.50;;
60847;SDS011;46681;47.696;9.140;2024-03-02T05:50:44;5.80;;;5.33;;
60847;SDS011;46681;47.696;9.140;2024-03-02T05:53:09;6.10;;;5.60;;
60847;SDS011;46681;47.696;9.140;2024-03-02T05:55:35;5.37;;;4.97;;
60847;SDS011;46681;47.696;9.140;2024-03-02T05:58:02;5.83;;;5.33;;
60847;SDS011;46681;47.696;9.140;2024-03-02T06:00:27;6.00;;;5.50;;
60847;SDS011;46681;47.696;9.140;2024-03-02T06:02:53;6.27;;;5.67;;
60847;SDS011;46681;47.696;9.140;2024-03-02T06:05:18;5.80;;;5.37;;
60847;SDS011;46681;47.696;9.140;2024-03-02T06:07:44;5.70;;;5.20;;
60847;SDS011;46681;47.696;9.140;2024-03-02T06:10:11;6.93;;;5.67;;
60847;SDS011;46681;47.696;9.140;2024-03-02T06:12:40;6.13;;;5.63;;
60847;SDS011;46681;47.696;9.140;2024-03-02T06:15:05;5.60;;;5.20;;
60847;SDS011;46681;47.696;9.140;2024-03-02T06:17:35;6.20;;;5.70;;
60847;SDS011;46681;47.696;9.140;2024-03-02T06:20:03;5.60;;;5.20;;
60847;SDS011;46681;47.696;9.140;2024-03-02T06:22:29;6.17;;;5.67;;
60847;SDS011;46681;47.696;9.140;2024-03-02T06:24:55;6.13;;;5.63;;
60847;SDS011;46681;47.696;9.140;2024-03-02T06:27:21;6.17;;;5.67;;
60847;SDS011;46681;47.696;9.140;2024-03-02T06:29:50;6.40;;;5.90;;
60847;SDS011;46681;47.696;9.140;2024-03-02T06:32:15;5.57;;;5.17;;
60847;SDS011;46681;47.696;9.140;2024-03-02T06:34:43;6.90;;;6.30;;
60847;SDS011;46681;47.696;9.140;2024-03-02T06:37:08;7.17;;;6.47;;
60847;SDS011;46681;47.696;9.140;2024-03-02T06:39:34;6.87;;;6.33;;
60847;SDS011;46681;47.696;9.140;2024-03-02T06:42:00;6.50;;;6.00;;
60847;SDS011;46681;47.696;9.140;2024-03-02T06:44:26;6.30;;;5.70;;
60847;SDS011;46681;47.696;9.140;2024-03-02T06:46:56;6.63;;;6.03;;
60847;SDS011;46681;47.696;9.140;2024-03-02T06:49:22;6.83;;;6.23;;
60847;SDS011;46681;47.696;9.140;2024-03-02T06:51:47;6.97;;;6.37;;
60847;SDS011;46681;47.696;9.140;2024-03-02T06:54:13;7.03;;;6.43;;
60847;SDS011;46681;47.696;9.140;2024-03-02T06:56:38;7.00;;;5.80;;
60847;SDS011;46681;47.696;9.140;2024-03-02T06:59:04;6.80;;;6.10;;
60847;SDS011;46681;47.696;9.140;2024-03-02T07:01:31;6.47;;;5.97;;
60847;SDS011;46681;47.696;9.140;2024-03-02T07:03:57;8.87;;;7.40;;
60847;SDS011;46681;47.696;9.140;2024-03-02T07:06:24;6.03;;;5.53;;
60847;SDS011;46681;47.696;9.140;2024-03-02T07:08:54;6.13;;;5.63;;
60847;SDS011;46681;47.696;9.140;2024-03-02T07:11:25;6.47;;;5.87;;
60847;SDS011;46681;47.696;9.140;2024-03-02T07:13:50;5.97;;;5.47;;
60847;SDS011;46681;47.696;9.140;2024-03-02T07:16:17;6.33;;;5.83;;
60847;SDS011;46681;47.696;9.140;2024-03-02T07:18:43;5.83;;;5.33;;
60847;SDS011;46681;47.696;9.140;2024-03-02T07:21:08;6.07;;;5.57;;
60847;SDS011;46681;47.696;9.140;2024-03-02T07:23:34;5.90;;;5.50;;
60847;SDS011;46681;47.696;9.140;2024-03-02T07:26:00;6.10;;;5.60;;
60847;SDS011;46681;47.696;9.140;2024-03-02T07:28:28;5.90;;;5.50;;
60847;SDS011;46681;47.696;9.140;2024-03-02T07:31:01;5.60;;;5.10;;
60847;SDS011;46681;47.696;9.140;2024-03-02T07:33:30;6.03;;;5.53;;
60847;SDS011;46681;47.696;9.140;2024-03-02T07:35:59;5.53;;;5.10;;
60847;SDS011;46681;47.696;9.140;2024-03-02T07:38:28;5.40;;;4.87;;
60847;SDS011;46681;47.696;9.140;2024-03-02T07:40:55;5.40;;;5.00;;
60847;SDS011;46681;47.696;9.140;2024-03-02T07:43:24;5.50;;;5.00;;
60847;SDS011;46681;47.696;9.140;2024-03-02T07:45:50;5.50;;;4.73;;
60847;SDS011;46681;47.696;9.140;2024-03-02T07:48:20;5.17;;;4.77;;
60847;SDS011;46681;47.696;9.140;2024-03-02T07:50:46;5.20;;;4.80;;
60847;SDS011;46681;47.696;9.140;2024-03-02T07:53:13;5.00;;;4.60;;
60847;SDS011;46681;47.696;9.140;2024-03-02T07:55:38;5.17;;;4.77;;
60847;SDS011;46681;47.696;9.140;2024-03-02T07:58:04;6.00;;;5.50;;
60847;SDS011;46681;47.696;9.140;2024-03-02T08:00:33;5.97;;;5.47;;
60847;SDS011;46681;47.696;9.140;2024-03-02T08:02:59;5.30;;;4.80;;
60847;SDS011;46681;47.696;9.140;2024-03-02T08:05:30;5.47;;;5.07;;
60847;SDS011;46681;47.696;9.140;2024-03-02T08:07:58;5.03;;;4.63;;
60847;SDS011;46681;47.696;9.140;2024-03-02T08:10:24;5.97;;;5.40;;
60847;SDS011;46681;47.696;9.140;2024-03-02T08:12:53;6.03;;;5.43;;
60847;SDS011;46681;47.696;9.140;2024-03-02T08:15:19;5.10;;;4.70;;
60847;SDS011;46681;47.696;9.140;2024-03-02T08:17:45;6.50;;;4.77;;
60847;SDS011;46681;47.696;9.140;2024-03-02T08:20:11;5.37;;;4.87;;
60847;SDS011;46681;47.696;9.140;2024-03-02T08:22:38;5.33;;;4.93;;
60847;SDS011;46681;47.696;9.140;2024-03-02T08:25:06;5.80;;;5.30;;
60847;SDS011;46681;47.696;9.140;2024-03-02T08:27:33;5.20;;;4.80;;
60847;SDS011;46681;47.696;9.140;2024-03-02T08:30:01;6.63;;;5.40;;
60847;SDS011;46681;47.696;9.140;2024-03-02T08:32:31;5.47;;;4.97;;
60847;SDS011;46681;47.696;9.140;2024-03-02T08:34:57;5.87;;;5.27;;
60847;SDS011;46681;47.696;9.140;2024-03-02T08:37:23;5.70;;;5.20;;
60847;SDS011;46681;47.696;9.140;2024-03-02T08:39:52;5.83;;;5.23;;
60847;SDS011;46681;47.696;9.140;2024-03-02T08:42:19;5.73;;;5.23;;
60847;SDS011;46681;47.696;9.140;2024-03-02T08:44:46;6.13;;;5.60;;
60847;SDS011;46681;47.696;9.140;2024-03-02T08:47:17;5.90;;;5.40;;
60847;SDS011;46681;47.696;9.140;2024-03-02T08:49:45;5.77;;;5.30;;
60847;SDS011;46681;47.696;9.140;2024-03-02T08:52:12;6.03;;;5.53;;
60847;SDS011;46681;47.696;9.140;2024-03-02T08:54:40;6.43;;;5.93;;
60847;SDS011;46681;47.696;9.140;2024-03-02T08:57:06;6.63;;;5.30;;
60847;SDS011;46681;47.696;9.140;2024-03-02T08:59:33;5.93;;;5.30;;
60847;SDS011;46681;47.696;9.140;2024-03-02T09:02:06;6.03;;;5.43;;
60847;SDS011;46681;47.696;9.140;2024-03-02T09:04:32;5.93;;;5.43;;
60847;SDS011;46681;47.696;9.140;2024-03-02T09:06:59;6.43;;;5.83;;
60847;SDS011;46681;47.696;9.140;2024-03-02T09:09:29;6.00;;;5.50;;
60847;SDS011;46681;47.696;9.140;2024-03-02T09:12:00;6.80;;;6.10;;
60847;SDS011;46681;47.696;9.140;2024-03-02T09:14:31;7.40;;;5.77;;
60847;SDS011;46681;47.696;9.140;2024-03-02T09:17:04;8.17;;;6.63;;
60847;SDS011;46681;47.696;9.140;2024-03-02T09:19:29;6.73;;;6.03;;
60847;SDS011;46681;47.696;9.140;2024-03-02T09:22:03;6.40;;;5.80;;
60847;SDS011;46681;47.696;9.140;2024-03-02T09:24:35;8.87;;;6.37;;
60847;SDS011;46681;47.696;9.140;2024-03-02T09:27:01;6.93;;;6.33;;
60847;SDS011;46681;47.696;9.140;2024-03-02T09:29:26;6.80;;;6.13;;
60847;SDS011;46681;47.696;9.140;2024-03-02T09:32:00;6.77;;;5.70;;
60847;SDS011;46681;47.696;9.140;2024-03-02T09:34:25;6.50;;;5.90;;
60847;SDS011;46681;47.696;9.140;2024-03-02T09:36:51;5.37;;;4.87;;
60847;SDS011;46681;47.696;9.140;2024-03-02T09:39:17;7.07;;;6.00;;
60847;SDS011;46681;47.696;9.140;2024-03-02T09:41:47;6.50;;;5.87;;
60847;SDS011;46681;47.696;9.140;2024-03-02T09:44:20;7.20;;;6.50;;
60847;SDS011;46681;47.696;9.140;2024-03-02T09:46:53;7.07;;;6.47;;
60847;SDS011;46681;47.696;9.140;2024-03-02T09:49:19;7.73;;;6.73;;
60847;SDS011;46681;47.696;9.140;2024-03-02T09:51:49;7.47;;;6.77;;
60847;SDS011;46681;47.696;9.140;2024-03-02T09:54:18;7.03;;;6.43;;
60847;SDS011;46681;47.696;9.140;2024-03-02T09:56:54;6.57;;;5.90;;
60847;SDS011;46681;47.696;9.140;2024-03-02T09:59:20;7.83;;;7.03;;
60847;SDS011;46681;47.696;9.140;2024-03-02T10:02:00;7.77;;;7.07;;
60847;SDS011;46681;47.696;9.140;2024-03-02T10:04:31;6.97;;;6.37;;
60847;SDS011;46681;47.696;9.140;2024-03-02T10:07:12;7.90;;;7.10;;
60847;SDS011;46681;47.696;9.140;2024-03-02T10:09:51;8.07;;;7.27;;
60847;SDS011;46681;47.696;9.140;2024-03-02T10:12:21;7.53;;;6.83;;
60847;SDS011;46681;47.696;9.140;2024-03-02T10:15:02;7.43;;;6.80;;
60847;SDS011;46681;47.696;9.140;2024-03-02T10:17:41;9.30;;;7.10;;
60847;SDS011;46681;47.696;9.140;2024-03-02T10:20:22;7.57;;;6.77;;
60847;SDS011;46681;47.696;9.140;2024-03-02T10:23:17;7.43;;;6.70;;
60847;SDS011;46681;47.696;9.140;2024-03-02T10:25:44;6.80;;;6.13;;
60847;SDS011;46681;47.696;9.140;2024-03-02T10:28:10;7.20;;;6.50;;
60847;SDS011;46681;47.696;9.140;2024-03-02T10:30:37;6.97;;;6.37;;
60847;SDS011;46681;47.696;9.140;2024-03-02T10:33:03;6.80;;;6.20;;
60847;SDS011;46681;47.696;9.140;2024-03-02T10:35:30;6.07;;;5.60;;
60847;SDS011;46681;47.696;9.140;2024-03-02T10:38:04;6.90;;;6.30;;
60847;SDS011;46681;47.696;9.140;2024-03-02T10:40:55;6.50;;;5.90;;
60847;SDS011;46681;47.696;9.140;2024-03-02T10:43:36;6.67;;;6.07;;
60847;SDS011;46681;47.696;9.140;2024-03-02T10:46:02;6.90;;;5.80;;
60847;SDS011;46681;47.696;9.140;2024-03-02T10:48:56;6.27;;;5.67;;
60847;SDS011;46681;47.696;9.140;2024-03-02T10:51:30;6.00;;;5.40;;
60847;SDS011;46681;47.696;9.140;2024-03-02T10:53:59;6.13;;;5.57;;
60847;SDS011;46681;47.696;9.140;2024-03-02T10:56:34;6.20;;;5.70;;
60847;SDS011;46681;47.696;9.140;2024-03-02T11:01:55;5.90;;;5.40;;
60847;SDS011;46681;47.696;9.140;2024-03-02T11:04:38;7.60;;;7.00;;
60847;SDS011;46681;47.696;9.140;2024-03-02T11:07:09;6.57;;;6.07;;
60847;SDS011;46681;47.696;9.140;2024-03-02T11:09:54;7.03;;;6.33;;
60847;SDS011;46681;47.696;9.140;2024-03-02T11:12:53;6.47;;;5.93;;
60847;SDS011;46681;47.696;9.140;2024-03-02T11:15:44;5.90;;;5.30;;
60847;SDS011;46681;47.696;9.140;2024-03-02T11:18:29;4.00;;;3.70;;
60847;SDS011;46681;47.696;9.140;2024-03-02T11:20:55;4.93;;;4.10;;
60847;SDS011;46681;47.696;9.140;2024-03-02T11:23:42;4.07;;;3.77;;
60847;SDS011;46681;47.696;9.140;2024-03-02T11:29:01;3.57;;;3.37;;
60847;SDS011;46681;47.696;9.140;2024-03-02T11:34:29;3.73;;;3.43;;
60847;SDS011;46681;47.696;9.140;2024-03-02T11:37:02;4.33;;;3.23;;
60847;SDS011;46681;47.696;9.140;2024-03-02T11:39:35;3.33;;;3.13;;
60847;SDS011;46681;47.696;9.140;2024-03-02T11:42:10;3.73;;;3.43;;
60847;SDS011;46681;47.696;9.140;2024-03-02T11:44:47;3.43;;;3.13;;
60847;SDS011;46681;47.696;9.140;2024-03-02T11:47:15;3.40;;;3.13;;
60847;SDS011;46681;47.696;9.140;2024-03-02T11:49:55;3.20;;;3.00;;
60847;SDS011;46681;47.696;9.140;2024-03-02T11:52:38;3.43;;;2.80;;
60847;SDS011;46681;47.696;9.140;2024-03-02T11:55:19;2.93;;;2.73;;
60847;SDS011;46681;47.696;9.140;2024-03-02T11:57:57;3.37;;;3.10;;
60847;SDS011;46681;47.696;9.140;2024-03-02T12:03:24;3.17;;;2.97;;
60847;SDS011;46681;47.696;9.140;2024-03-02T12:05:51;3.13;;;2.93;;
60847;SDS011;46681;47.696;9.140;2024-03-02T12:08:19;3.70;;;3.40;;
60847;SDS011;46681;47.696;9.140;2024-03-02T12:10:59;4.30;;;3.23;;
60847;SDS011;46681;47.696;9.140;2024-03-02T12:13:27;6.93;;;3.97;;
60847;SDS011;46681;47.696;9.140;2024-03-02T12:16:00;4.00;;;3.27;;
60847;SDS011;46681;47.696;9.140;2024-03-02T12:18:28;4.37;;;3.97;;
60847;SDS011;46681;47.696;9.140;2024-03-02T12:20:59;3.50;;;3.30;;
60847;SDS011;46681;47.696;9.140;2024-03-02T12:23:28;4.00;;;3.70;;
60847;SDS011;46681;47.696;9.140;2024-03-02T12:25:56;4.13;;;3.70;;
60847;SDS011;46681;47.696;9.140;2024-03-02T12:28:28;3.93;;;3.37;;
60847;SDS011;46681;47.696;9.140;2024-03-02T12:31:02;4.10;;;3.47;;
60847;SDS011;46681;47.696;9.140;2024-03-02T12:33:33;4.80;;;3.97;;
60847;SDS011;46681;47.696;9.140;2024-03-02T12:36:01;9.03;;;3.77;;
60847;SDS011;46681;47.696;9.140;2024-03-02T12:38:33;5.10;;;3.67;;
60847;SDS011;46681;47.696;9.140;2024-03-02T12:41:06;3.90;;;3.00;;
60847;SDS011;46681;47.696;9.140;2024-03-02T12:43:35;3.57;;;3.27;;
60847;SDS011;46681;47.696;9.140;2024-03-02T12:46:04;4.53;;;3.73;;
60847;SDS011;46681;47.696;9.140;2024-03-02T12:48:34;3.53;;;3.23;;
60847;SDS011;46681;47.696;9.140;2024-03-02T12:51:08;3.70;;;3.40;;
60847;SDS011;46681;47.696;9.140;2024-03-02T12:53:38;3.23;;;2.93;;
60847;SDS011;46681;47.696;9.140;2024-03-02T12:56:09;9.17;;;4.07;;
60847;SDS011;46681;47.696;9.140;2024-03-02T12:58:46;9.13;;;3.93;;
60847;SDS011;46681;47.696;9.140;2024-03-02T13:01:29;3.77;;;3.00;;
60847;SDS011;46681;47.696;9.140;2024-03-02T13:04:01;6.83;;;2.80;;
60847;SDS011;46681;47.696;9.140;2024-03-02T13:06:42;4.60;;;2.73;;
60847;SDS011;46681;47.696;9.140;2024-03-02T13:09:16;4.67;;;3.27;;
60847;SDS011;46681;47.696;9.140;2024-03-02T13:11:54;3.23;;;2.93;;
60847;SDS011;46681;47.696;9.140;2024-03-02T13:14:23;4.93;;;2.90;;
60847;SDS011;46681;47.696;9.140;2024-03-02T13:17:01;3.47;;;2.20;;
60847;SDS011;46681;47.696;9.140;2024-03-02T13:19:30;3.50;;;2.67;;
60847;SDS011;46681;47.696;9.140;2024-03-02T13:21:56;3.43;;;2.70;;
60847;SDS011;46681;47.696;9.140;2024-03-02T13:24:22;9.60;;;3.10;;
60847;SDS011;46681;47.696;9.140;2024-03-02T13:26:50;2.67;;;2.37;;
60847;SDS011;46681;47.696;9.140;2024-03-02T13:29:22;2.60;;;2.40;;
60847;SDS011;46681;47.696;9.140;2024-03-02T13:31:48;2.77;;;2.57;;
60847;SDS011;46681;47.696;9.140;2024-03-02T13:34:16;4.57;;;2.40;;
60847;SDS011;46681;47.696;9.140;2024-03-02T13:36:46;3.60;;;2.47;;
60847;SDS011;46681;47.696;9.140;2024-03-02T13:39:20;2.30;;;2.20;;
60847;SDS011;46681;47.696;9.140;2024-03-02T13:41:53;2.40;;;1.87;;
60847;SDS011;46681;47.696;9.140;2024-03-02T13:44:27;4.27;;;2.13;;
60847;SDS011;46681;47.696;9.140;2024-03-02T13:46:58;2.10;;;2.00;;
60847;SDS011;46681;47.696;9.140;2024-03-02T13:49:38;2.30;;;1.80;;
60847;SDS011;46681;47.696;9.140;2024-03-02T13:52:05;4.10;;;1.87;;
60847;SDS011;46681;47.696;9.140;2024-03-02T13:54:37;1.97;;;1.87;;
60847;SDS011;46681;47.696;9.140;2024-03-02T13:57:03;1.90;;;1.80;;
60847;SDS011;46681;47.696;9.140;2024-03-02T13:59:37;2.43;;;2.00;;
60847;SDS011;46681;47.696;9.140;2024-03-02T14:02:19;1.80;;;1.70;;
60847;SDS011;46681;47.696;9.140;2024-03-02T14:04:47;2.63;;;1.90;;
60847;SDS011;46681;47.696;9.140;2024-03-02T14:07:15;1.77;;;1.67;;
60847;SDS011;46681;47.696;9.140;2024-03-02T14:09:42;2.80;;;1.70;;
60847;SDS011;46681;47.696;9.140;2024-03-02T14:12:15;1.93;;;1.80;;
60847;SDS011;46681;47.696;9.140;2024-03-02T14:14:41;2.83;;;1.77;;
60847;SDS011;46681;47.696;9.140;2024-03-02T14:17:10;1.90;;;1.80;;
60847;SDS011;46681;47.696;9.140;2024-03-02T14:19:42;1.70;;;1.60;;
60847;SDS011;46681;47.696;9.140;2024-03-02T14:22:09;2.07;;;1.97;;
60847;SDS011;46681;47.696;9.140;2024-03-02T14:24:38;1.83;;;1.73;;
60847;SDS011;46681;47.696;9.140;2024-03-02T14:27:06;1.73;;;1.63;;
60847;SDS011;46681;47.696;9.140;2024-03-02T14:29:32;1.60;;;1.60;;
60847;SDS011;46681;47.696;9.140;2024-03-02T14:32:05;1.97;;;1.80;;
60847;SDS011;46681;47.696;9.140;2024-03-02T14:34:31;3.63;;;2.10;;
60847;SDS011;46681;47.696;9.140;2024-03-02T14:37:01;2.93;;;1.50;;
60847;SDS011;46681;47.696;9.140;2024-03-02T14:39:27;2.27;;;2.07;;
60847;SDS011;46681;47.696;9.140;2024-03-02T14:41:58;1.93;;;1.83;;
60847;SDS011;46681;47.696;9.140;2024-03-02T14:44:24;2.57;;;2.33;;
60847;SDS011;46681;47.696;9.140;2024-03-02T14:46:50;1.67;;;1.57;;
60847;SDS011;46681;47.696;9.140;2024-03-02T14:49:32;2.20;;;2.00;;
60847;SDS011;46681;47.696;9.140;2024-03-02T14:52:00;2.17;;;1.93;;
60847;SDS011;46681;47.696;9.140;2024-03-02T14:54:32;1.67;;;1.57;;
60847;SDS011;46681;47.696;9.140;2024-03-02T14:57:10;2.37;;;2.17;;
60847;SDS011;46681;47.696;9.140;2024-03-02T15:02:48;2.30;;;2.20;;
60847;SDS011;46681;47.696;9.140;2024-03-02T15:05:15;2.50;;;2.30;;
60847;SDS011;46681;47.696;9.140;2024-03-02T15:07:41;2.27;;;2.17;;
60847;SDS011;46681;47.696;9.140;2024-03-02T15:10:08;1.90;;;1.80;;
60847;SDS011;46681;47.696;9.140;2024-03-02T15:12:38;2.10;;;2.00;;
60847;SDS011;46681;47.696;9.140;2024-03-02T15:15:07;2.13;;;1.93;;